Time;durP1;ratioP1;P1;durP2;ratioP2;P2;SDS_P1;SDS_P2;PMS_P1;PMS_P2;Temp;Humidity;BMP_temperature;BMP_pressure;BME280_temperature;BME280_humidity;BME280_pressure;Samples;Min_cycle;Max_cycle;Signal;HPM_P1;HPM_P2
2023/05/20 00:00:47;;;;;;;15.23;8.23;;;;;;;10.99;100.00;93920.53;5098625;28;20039;-59
2023/05/20 00:03:21;;;;;;;13.38;8.38;;;;;;;11.08;100.00;93924.72;5111794;28;20150;-59
2023/05/20 00:05:48;;;;;;;13.60;8.00;;;;;;;11.07;100.00;93915.69;5112301;28;20055;-59
2023/05/20 00:08:14;;;;;;;12.90;8.30;;;;;;;10.88;100.00;93919.94;5111620;28;20084;-59
2023/05/20 00:10:41;;;;;;;12.02;8.10;;;;;;;11.03;100.00;93915.00;5093886;28;20047;-62
2023/05/20 00:13:08;;;;;;;14.55;7.82;;;;;;;10.99;100.00;93914.28;5097662;28;20050;-60
2023/05/20 00:15:35;;;;;;;14.75;8.90;;;;;;;10.92;100.00;93911.63;5109744;28;20035;-60
2023/05/20 00:18:03;;;;;;;14.87;8.63;;;;;;;10.96;100.00;93904.88;5099144;28;20131;-61
2023/05/20 00:20:31;;;;;;;12.73;8.30;;;;;;;10.93;100.00;93905.72;5091289;28;20040;-60
2023/05/20 00:22:57;;;;;;;15.48;9.60;;;;;;;10.89;100.00;93896.78;5091231;28;20040;-61
2023/05/20 00:25:24;;;;;;;17.77;11.43;;;;;;;10.81;100.00;93905.56;5091263;28;20400;-60
2023/05/20 00:27:51;;;;;;;16.67;9.32;;;;;;;10.74;100.00;93901.72;5084816;28;20062;-61
2023/05/20 00:30:18;;;;;;;14.83;9.13;;;;;;;10.57;100.00;93900.03;5093082;28;20748;-59
2023/05/20 00:32:44;;;;;;;15.63;9.30;;;;;;;10.65;100.00;93892.47;5091131;28;20108;-60
2023/05/20 00:35:11;;;;;;;15.73;9.50;;;;;;;10.61;100.00;93889.78;5090680;28;20062;-60
2023/05/20 00:37:38;;;;;;;15.88;10.27;;;;;;;10.41;100.00;93881.47;5099967;28;20043;-60
2023/05/20 00:40:06;;;;;;;15.43;9.48;;;;;;;10.36;100.00;93890.16;5087708;28;20044;-60
2023/05/20 00:42:32;;;;;;;13.53;9.67;;;;;;;10.33;100.00;93891.00;5111077;28;20042;-59
2023/05/20 00:44:59;;;;;;;16.88;9.60;;;;;;;10.27;100.00;93887.13;5110773;28;20250;-60
2023/05/20 00:47:31;;;;;;;14.57;9.90;;;;;;;10.25;100.00;93882.06;5098890;28;20028;-59
2023/05/20 00:49:59;;;;;;;15.10;9.85;;;;;;;10.21;100.00;93878.59;5090577;28;20398;-60
2023/05/20 00:52:31;;;;;;;16.13;10.25;;;;;;;10.18;100.00;93874.72;5106541;28;20042;-59
2023/05/20 00:54:58;;;;;;;15.90;9.90;;;;;;;10.11;100.00;93863.84;5102303;28;20052;-60
2023/05/20 00:57:25;;;;;;;15.40;9.40;;;;;;;10.08;100.00;93861.94;5089540;28;20036;-60
2023/05/20 00:59:52;;;;;;;15.38;9.45;;;;;;;10.17;100.00;93859.44;5099298;28;20127;-59
2023/05/20 01:02:20;;;;;;;13.95;8.98;;;;;;;10.13;100.00;93858.72;5096559;28;20050;-59
2023/05/20 01:04:47;;;;;;;15.45;10.13;;;;;;;9.94;100.00;93860.19;5072610;28;20051;-59
2023/05/20 01:07:18;;;;;;;13.67;9.13;;;;;;;10.04;100.00;93861.22;5089939;28;20047;-61
2023/05/20 01:09:45;;;;;;;14.20;9.50;;;;;;;9.86;100.00;93864.22;5097139;28;20047;-60
2023/05/20 01:12:24;;;;;;;14.98;9.10;;;;;;;9.79;100.00;93872.50;5091399;28;20040;-60
2023/05/20 01:15:00;;;;;;;15.65;9.15;;;;;;;9.85;100.00;93850.91;5106934;28;20031;-59
2023/05/20 01:17:31;;;;;;;16.33;10.10;;;;;;;9.82;100.00;93859.94;5090094;28;20050;-59
2023/05/20 01:20:00;;;;;;;14.80;9.37;;;;;;;9.88;100.00;93858.28;5109770;28;20047;-61
2023/05/20 01:22:28;;;;;;;15.52;9.38;;;;;;;9.86;100.00;93858.72;5109788;28;20096;-60
2023/05/20 01:24:55;;;;;;;16.23;9.40;;;;;;;9.98;100.00;93858.16;5096646;28;20036;-59
2023/05/20 01:27:23;;;;;;;16.70;9.57;;;;;;;9.99;100.00;93864.41;5088289;28;21625;-59
2023/05/20 01:29:51;;;;;;;14.40;9.27;;;;;;;10.04;100.00;93863.16;5088990;28;20044;-59
2023/05/20 01:32:22;;;;;;;14.47;9.10;;;;;;;9.94;100.00;93854.69;5088624;28;20028;-60
2023/05/20 01:34:50;;;;;;;16.45;9.23;;;;;;;9.99;100.00;93854.22;5089082;28;20046;-59
2023/05/20 01:37:19;;;;;;;17.27;9.63;;;;;;;10.06;100.00;93847.06;5092466;28;20469;-60
2023/05/20 01:39:48;;;;;;;12.80;8.38;;;;;;;9.98;100.00;93849.16;5068749;28;20358;-59
2023/05/20 01:42:16;;;;;;;49.08;27.75;;;;;;;10.03;100.00;93845.19;5050466;28;20048;-59
2023/05/20 01:44:42;;;;;;;14.87;10.10;;;;;;;9.91;100.00;93849.25;5068759;28;20503;-59
2023/05/20 01:47:09;;;;;;;14.98;9.77;;;;;;;9.65;100.00;93848.03;5078068;28;20040;-60
2023/05/20 01:49:36;;;;;;;16.08;10.73;;;;;;;9.45;100.00;93853.38;5068656;28;20109;-59
2023/05/20 01:52:03;;;;;;;15.27;9.88;;;;;;;9.45;100.00;93854.13;5068269;28;20485;-59
2023/05/20 01:54:30;;;;;;;14.52;9.82;;;;;;;9.52;100.00;93848.59;5072452;28;20028;-61
2023/05/20 01:56:57;;;;;;;15.23;9.07;;;;;;;9.76;100.00;93845.94;5077456;28;20067;-59
2023/05/20 01:59:23;;;;;;;14.82;9.68;;;;;;;9.64;100.00;93847.25;5068384;28;20043;-58
2023/05/20 02:01:50;;;;;;;16.85;10.35;;;;;;;9.47;100.00;93845.50;5050835;28;20052;-59
2023/05/20 02:04:17;;;;;;;14.07;9.38;;;;;;;9.69;100.00;93844.06;5084484;28;20044;-60
2023/05/20 02:06:44;;;;;;;15.55;10.10;;;;;;;9.56;100.00;93849.31;5076791;28;20043;-59
2023/05/20 02:09:11;;;;;;;15.80;10.37;;;;;;;9.53;100.00;93846.63;5067655;28;20037;-58
2023/05/20 02:11:38;;;;;;;16.27;9.57;;;;;;;9.50;100.00;93847.44;5073794;28;20047;-60
2023/05/20 02:14:05;;;;;;;15.20;9.52;;;;;;;9.64;100.00;93850.00;5074551;28;20038;-58
2023/05/20 02:16:32;;;;;;;15.45;9.73;;;;;;;9.66;100.00;93846.84;5088820;28;20036;-58
2023/05/20 02:19:00;;;;;;;14.00;9.48;;;;;;;9.73;100.00;93860.47;5068536;28;20037;-61
2023/05/20 02:21:27;;;;;;;14.93;9.20;;;;;;;9.76;100.00;93854.94;5078226;28;20058;-59
2023/05/20 02:23:54;;;;;;;15.85;9.45;;;;;;;9.59;100.00;93853.97;5084138;28;20051;-61
2023/05/20 02:26:21;;;;;;;14.13;9.38;;;;;;;9.54;100.00;93862.66;5078402;28;20036;-59
2023/05/20 02:28:49;;;;;;;14.98;9.30;;;;;;;9.70;100.00;93855.78;5089022;28;20376;-60
2023/05/20 02:31:16;;;;;;;15.90;9.80;;;;;;;9.45;100.00;93856.88;5088469;28;20044;-58
2023/05/20 02:33:44;;;;;;;15.03;9.93;;;;;;;9.59;100.00;93867.66;5084144;28;20380;-58
2023/05/20 02:36:11;;;;;;;14.13;9.77;;;;;;;9.56;100.00;93867.72;5078301;28;20039;-58
2023/05/20 02:38:38;;;;;;;14.05;9.20;;;;;;;9.65;100.00;93867.97;5089223;28;20074;-61
2023/05/20 02:41:05;;;;;;;14.73;9.55;;;;;;;9.65;100.00;93865.25;5088563;28;20153;-59
2023/05/20 02:43:32;;;;;;;15.07;9.98;;;;;;;9.59;100.00;93873.13;5085362;28;20036;-58
2023/05/20 02:45:59;;;;;;;17.70;9.17;;;;;;;9.71;100.00;93854.59;5084765;28;20052;-61
2023/05/20 02:48:26;;;;;;;16.13;10.05;;;;;;;9.65;100.00;93853.50;5096577;28;20442;-58
2023/05/20 02:50:53;;;;;;;13.60;9.30;;;;;;;9.75;100.00;93853.38;5088852;28;20106;-59
2023/05/20 02:53:19;;;;;;;13.65;9.18;;;;;;;9.74;100.00;93856.53;5087743;28;20036;-62
2023/05/20 02:55:47;;;;;;;13.82;9.38;;;;;;;9.88;100.00;93853.59;5082890;28;20492;-60
2023/05/20 02:58:14;;;;;;;15.83;9.17;;;;;;;9.99;100.00;93847.97;5063463;28;20043;-59
2023/05/20 03:00:43;;;;;;;18.02;9.48;;;;;;;9.71;100.00;93838.16;5088798;28;20044;-59
2023/05/20 03:03:12;;;;;;;16.08;9.70;;;;;;;9.75;100.00;93836.91;5070318;28;20043;-59
2023/05/20 03:05:41;;;;;;;15.25;8.93;;;;;;;9.72;100.00;93839.72;5088908;28;20044;-61
2023/05/20 03:08:09;;;;;;;16.13;9.65;;;;;;;9.62;100.00;93830.47;5088132;28;20485;-62
2023/05/20 03:10:37;;;;;;;14.50;9.40;;;;;;;9.78;100.00;93836.13;5088986;28;20141;-64
2023/05/20 03:13:10;;;;;;;16.25;9.65;;;;;;;9.85;100.00;93837.19;5087990;28;20036;-61
2023/05/20 03:15:37;;;;;;;15.70;9.30;;;;;;;9.89;100.00;93832.44;5088601;28;20066;-61
2023/05/20 03:18:05;;;;;;;17.77;9.90;;;;;;;9.92;100.00;93845.31;5087846;28;20113;-64
2023/05/20 03:20:35;;;;;;;15.05;9.70;;;;;;;9.84;100.00;93841.13;5090341;28;20044;-61
2023/05/20 03:23:03;;;;;;;15.60;9.77;;;;;;;9.81;100.00;93840.00;5091844;28;20047;-61
2023/05/20 03:25:30;;;;;;;16.83;10.00;;;;;;;9.80;100.00;93833.75;5092414;28;20043;-63
2023/05/20 03:27:58;;;;;;;17.98;9.98;;;;;;;9.82;100.00;93833.34;5091620;28;20060;-60
2023/05/20 03:30:28;;;;;;;16.08;9.43;;;;;;;9.90;100.00;93840.25;5092466;28;20062;-61
2023/05/20 03:32:58;;;;;;;16.23;10.02;;;;;;;9.85;100.00;93834.47;5092223;28;20100;-61
2023/05/20 03:35:25;;;;;;;15.07;9.33;;;;;;;10.03;100.00;93829.50;5091410;28;20442;-61
2023/05/20 03:37:52;;;;;;;15.80;9.90;;;;;;;10.09;100.00;93835.28;5093079;28;20106;-61
2023/05/20 03:40:22;;;;;;;17.27;9.20;;;;;;;10.17;100.00;93836.75;5091699;28;20097;-62
2023/05/20 03:42:50;;;;;;;14.68;10.25;;;;;;;9.92;100.00;93832.41;5092149;28;20160;-58
2023/05/20 03:45:17;;;;;;;16.33;10.25;;;;;;;9.77;100.00;93840.03;5103134;28;20044;-58
2023/05/20 03:47:44;;;;;;;19.90;10.30;;;;;;;9.71;100.00;93829.94;5086111;28;20040;-59
2023/05/20 03:50:11;;;;;;;15.20;9.77;;;;;;;9.76;100.00;93826.75;5091710;28;20035;-60
2023/05/20 03:52:39;;;;;;;15.63;9.82;;;;;;;9.88;100.00;93826.19;5088406;28;20046;-60
2023/05/20 03:55:07;;;;;;;17.65;10.13;;;;;;;9.83;100.00;93823.13;5098928;28;20063;-60
2023/05/20 03:57:35;;;;;;;16.75;9.77;;;;;;;9.94;100.00;93821.00;5091671;28;20396;-60
2023/05/20 04:00:08;;;;;;;15.53;9.70;;;;;;;10.04;100.00;93824.78;5091223;28;20040;-60
2023/05/20 04:02:35;;;;;;;16.38;10.05;;;;;;;9.77;100.00;93833.78;5094828;28;20070;-60
2023/05/20 04:05:03;;;;;;;14.48;9.77;;;;;;;10.08;100.00;93831.78;5111303;28;20039;-61
2023/05/20 04:07:30;;;;;;;14.70;9.98;;;;;;;10.04;100.00;93842.03;5108615;28;20145;-61
2023/05/20 04:09:58;;;;;;;16.52;9.70;;;;;;;9.77;100.00;93842.00;5091219;28;20058;-59
2023/05/20 04:12:29;;;;;;;15.27;10.80;;;;;;;9.68;100.00;93834.28;5091598;28;20042;-61
2023/05/20 04:14:57;;;;;;;15.82;10.05;;;;;;;9.88;100.00;93839.09;5091305;28;20070;-61
2023/05/20 04:17:24;;;;;;;16.50;10.70;;;;;;;9.81;100.00;93845.47;5091486;28;20044;-62
2023/05/20 04:19:51;;;;;;;15.75;10.38;;;;;;;9.80;100.00;93835.72;5091378;28;20417;-62
2023/05/20 04:22:18;;;;;;;15.10;10.57;;;;;;;9.88;100.00;93834.41;5090960;28;20032;-60
2023/05/20 04:24:45;;;;;;;14.30;9.87;;;;;;;9.83;100.00;93834.09;5091236;28;20040;-61
2023/05/20 04:27:12;;;;;;;16.85;10.77;;;;;;;9.66;100.00;93831.19;5090475;28;20051;-61
2023/05/20 04:29:40;;;;;;;20.17;11.38;;;;;;;9.68;100.00;93831.56;5107408;28;20384;-61
2023/05/20 04:32:09;;;;;;;20.08;11.13;;;;;;;9.77;100.00;93836.53;5101971;28;20057;-61
2023/05/20 04:34:36;;;;;;;16.50;10.07;;;;;;;9.84;100.00;93841.13;5104665;28;20056;-59
2023/05/20 04:37:03;;;;;;;14.23;10.20;;;;;;;9.96;100.00;93833.13;5090692;28;20035;-61
2023/05/20 04:39:30;;;;;;;15.55;10.27;;;;;;;10.14;100.00;93823.84;5092435;28;20158;-62
2023/05/20 04:41:56;;;;;;;14.93;10.00;;;;;;;10.32;100.00;93823.59;5110729;28;20088;-59
2023/05/20 04:44:25;;;;;;;20.35;10.38;;;;;;;10.46;100.00;93817.13;5103729;28;20032;-61
2023/05/20 04:46:52;;;;;;;16.98;10.07;;;;;;;10.49;100.00;93819.03;5111177;28;20046;-59
2023/05/20 04:49:19;;;;;;;18.47;11.40;;;;;;;9.74;100.00;93818.19;5094049;28;20393;-61
2023/05/20 04:51:48;;;;;;;18.92;11.05;;;;;;;9.89;100.00;93818.75;5108053;28;20053;-61
2023/05/20 04:54:16;;;;;;;17.13;10.77;;;;;;;10.17;100.00;93812.81;5110474;28;21808;-61
2023/05/20 04:56:43;;;;;;;18.70;11.07;;;;;;;10.48;100.00;93807.25;5110915;28;20154;-59
2023/05/20 04:59:10;;;;;;;16.52;10.32;;;;;;;10.56;100.00;93810.66;5109594;28;20046;-58
2023/05/20 05:01:36;;;;;;;14.53;10.10;;;;;;;10.83;100.00;93802.38;5072531;28;20036;-58
2023/05/20 05:04:04;;;;;;;17.38;10.98;;;;;;;10.55;100.00;93809.91;5084627;28;20043;-58
2023/05/20 05:06:30;;;;;;;19.05;11.23;;;;;;;10.74;100.00;93799.38;5092940;28;20032;-58
2023/05/20 05:08:57;;;;;;;16.63;10.38;;;;;;;10.92;100.00;93799.06;5089974;28;20048;-60
2023/05/20 05:11:25;;;;;;;18.58;12.18;;;;;;;10.46;100.00;93806.91;5087238;28;20057;-59
2023/05/20 05:13:53;;;;;;;19.90;12.63;;;;;;;10.64;100.00;93803.88;5090476;28;20048;-59
2023/05/20 05:16:20;;;;;;;16.10;11.68;;;;;;;10.69;100.00;93810.88;5089800;28;20048;-60
2023/05/20 05:18:47;;;;;;;19.77;10.90;;;;;;;10.92;100.00;93804.56;5096926;28;20038;-60
2023/05/20 05:21:13;;;;;;;16.85;10.50;;;;;;;11.08;100.00;93806.63;5109357;28;20374;-59
2023/05/20 05:23:41;;;;;;;18.15;11.90;;;;;;;10.83;100.00;93807.09;5094993;28;20040;-58
2023/05/20 05:26:08;;;;;;;17.83;11.23;;;;;;;10.94;100.00;93802.16;5097756;28;20066;-59
2023/05/20 05:28:35;;;;;;;16.02;11.77;;;;;;;10.80;100.00;93808.69;5089847;28;20054;-63
2023/05/20 05:31:01;;;;;;;19.80;11.93;;;;;;;10.70;100.00;93801.41;5089407;28;20052;-62
2023/05/20 05:33:29;;;;;;;17.83;11.05;;;;;;;10.86;100.00;93796.03;5090018;28;20486;-60
2023/05/20 05:35:57;;;;;;;17.88;11.85;;;;;;;10.84;100.00;93792.94;5089344;28;20036;-57
2023/05/20 05:38:25;;;;;;;16.60;10.73;;;;;;;11.09;100.00;93789.72;5094682;28;20040;-60
2023/05/20 05:40:52;;;;;;;15.02;10.32;;;;;;;11.27;100.00;93785.84;5110354;28;20054;-60
2023/05/20 05:43:18;;;;;;;15.77;10.95;;;;;;;11.17;100.00;93793.88;5090036;28;20644;-58
2023/05/20 05:45:45;;;;;;;19.67;10.43;;;;;;;11.32;100.00;93796.34;5097332;28;20042;-60
2023/05/20 05:48:12;;;;;;;18.65;11.52;;;;;;;11.33;100.00;93792.41;5101884;28;20436;-60
2023/05/20 05:50:43;;;;;;;20.93;12.27;;;;;;;10.54;100.00;93800.13;5089438;28;20357;-61
2023/05/20 05:53:10;;;;;;;19.42;12.15;;;;;;;10.39;100.00;93794.09;5089009;28;20044;-60
2023/05/20 05:55:37;;;;;;;18.13;11.25;;;;;;;10.91;100.00;93792.81;5104838;28;20035;-63
2023/05/20 05:58:03;;;;;;;18.50;12.40;;;;;;;10.63;100.00;93802.31;5109188;28;20484;-60
2023/05/20 06:00:30;;;;;;;17.10;11.20;;;;;;;11.16;100.00;93795.06;5109382;28;20069;-58
2023/05/20 06:02:57;;;;;;;17.00;11.37;;;;;;;11.39;100.00;93799.72;5108555;28;20179;-61
2023/05/20 06:05:24;;;;;;;16.58;11.90;;;;;;;11.65;100.00;93799.19;5097452;28;20081;-58
2023/05/20 06:07:54;;;;;;;17.70;12.52;;;;;;;11.70;100.00;93793.97;5089012;28;20126;-58
2023/05/20 06:10:21;;;;;;;17.38;11.82;;;;;;;11.89;100.00;93799.88;5066524;28;20377;-58
2023/05/20 06:12:48;;;;;;;18.88;12.93;;;;;;;10.74;100.00;93804.88;5102576;28;20043;-60
2023/05/20 06:15:14;;;;;;;19.43;11.70;;;;;;;11.24;100.00;93801.19;5108211;28;20084;-59
2023/05/20 06:17:41;;;;;;;20.85;12.77;;;;;;;10.92;100.00;93799.06;5089773;28;20054;-58
2023/05/20 06:20:08;;;;;;;17.13;12.20;;;;;;;11.08;100.00;93799.16;5090397;28;20031;-58
2023/05/20 06:22:35;;;;;;;16.23;11.10;;;;;;;11.61;100.00;93799.28;5109014;28;20051;-61
2023/05/20 06:25:02;;;;;;;18.17;11.88;;;;;;;11.65;100.00;93801.94;5108841;28;20423;-59
2023/05/20 06:27:29;;;;;;;18.20;11.23;;;;;;;11.64;100.00;93797.66;5091348;28;20383;-61
2023/05/20 06:29:55;;;;;;;19.20;12.27;;;;;;;11.69;100.00;93799.88;5097241;28;20052;-61
2023/05/20 06:32:22;;;;;;;18.98;11.93;;;;;;;11.42;100.00;93784.34;5089081;28;20431;-58
2023/05/20 06:34:49;;;;;;;20.50;13.65;;;;;;;11.26;100.00;93792.53;5089041;28;20048;-60
2023/05/20 06:37:16;;;;;;;17.63;11.88;;;;;;;11.45;100.00;93786.28;5088306;28;20051;-62
2023/05/20 06:39:43;;;;;;;18.23;11.83;;;;;;;11.52;100.00;93777.09;5088784;28;20048;-64
2023/05/20 06:42:10;;;;;;;19.67;13.48;;;;;;;11.35;100.00;93771.56;5088043;28;20516;-61
2023/05/20 06:44:37;;;;;;;19.13;12.75;;;;;;;11.12;100.00;93769.63;5088864;28;20040;-60
2023/05/20 06:47:03;;;;;;;17.10;12.02;;;;;;;11.05;100.00;93782.75;5092822;28;20473;-58
2023/05/20 06:49:30;;;;;;;19.98;13.65;;;;;;;10.58;100.00;93791.81;5088605;28;20140;-59
2023/05/20 06:51:57;;;;;;;17.47;12.10;;;;;;;10.88;100.00;93793.63;5080890;28;20048;-58
2023/05/20 06:54:23;;;;;;;19.08;12.07;;;;;;;11.08;100.00;93790.13;5106817;28;20035;-58
2023/05/20 06:56:50;;;;;;;16.67;11.88;;;;;;;11.47;100.00;93783.06;5113208;28;20047;-62
2023/05/20 06:59:17;;;;;;;20.25;12.43;;;;;;;11.80;100.00;93778.44;5107744;28;20042;-58
2023/05/20 07:01:44;;;;;;;19.08;11.85;;;;;;;11.91;100.00;93775.47;5112759;28;20064;-58
2023/05/20 07:04:11;;;;;;;15.37;11.17;;;;;;;12.20;100.00;93767.34;5107249;28;20058;-60
2023/05/20 07:06:38;;;;;;;17.55;11.80;;;;;;;12.36;100.00;93759.09;5092132;28;20354;-58
2023/05/20 07:09:04;;;;;;;18.48;12.05;;;;;;;12.51;100.00;93767.75;5091047;28;20500;-61
2023/05/20 07:11:31;;;;;;;16.85;11.52;;;;;;;12.76;100.00;93756.13;5104137;28;20043;-58
2023/05/20 07:13:58;;;;;;;19.65;13.32;;;;;;;11.91;100.00;93757.03;5108677;28;20044;-59
2023/05/20 07:16:24;;;;;;;18.97;12.07;;;;;;;12.00;100.00;93756.44;5112486;28;20043;-59
2023/05/20 07:18:51;;;;;;;19.92;12.80;;;;;;;11.89;100.00;93753.94;5112022;28;20047;-59
2023/05/20 07:21:18;;;;;;;18.77;11.60;;;;;;;12.59;100.00;93755.34;5093038;28;20039;-58
2023/05/20 07:23:45;;;;;;;22.15;15.23;;;;;;;12.33;100.00;93757.19;5111684;28;20046;-58
2023/05/20 07:26:11;;;;;;;20.65;13.52;;;;;;;12.10;100.00;93755.41;5111219;28;20040;-58
2023/05/20 07:28:38;;;;;;;20.07;12.80;;;;;;;12.49;100.00;93767.41;5112173;28;20043;-59
2023/05/20 07:31:05;;;;;;;19.75;12.18;;;;;;;12.52;100.00;93757.53;5110703;28;20070;-59
2023/05/20 07:33:32;;;;;;;16.15;11.48;;;;;;;12.72;100.00;93752.69;5111713;28;20036;-59
2023/05/20 07:35:59;;;;;;;19.58;12.93;;;;;;;12.34;100.00;93758.75;5079028;28;20032;-59
2023/05/20 07:38:25;;;;;;;16.38;11.60;;;;;;;12.65;100.00;93752.09;5112194;28;20042;-61
2023/05/20 07:40:52;;;;;;;16.37;11.27;;;;;;;12.88;100.00;93754.63;5111758;28;20051;-61
2023/05/20 07:43:19;;;;;;;15.77;10.48;;;;;;;13.12;100.00;93751.63;5111068;28;20042;-61
2023/05/20 07:45:46;;;;;;;15.57;10.68;;;;;;;12.89;100.00;93758.16;5098498;28;20036;-60
2023/05/20 07:48:13;;;;;;;16.15;10.60;;;;;;;12.82;100.00;93755.56;5092373;28;20036;-61
2023/05/20 07:50:40;;;;;;;15.15;10.82;;;;;;;12.62;100.00;93759.25;5091834;28;20051;-62
2023/05/20 07:53:07;;;;;;;14.40;10.17;;;;;;;12.50;100.00;93755.22;5111249;28;20050;-60
2023/05/20 07:55:35;;;;;;;14.73;10.30;;;;;;;12.74;100.00;93758.53;5111496;28;20482;-60
2023/05/20 07:58:03;;;;;;;15.40;10.13;;;;;;;13.10;100.00;93743.00;5104592;28;20043;-60
2023/05/20 08:00:29;;;;;;;15.70;10.35;;;;;;;12.76;100.00;93758.09;5099971;28;20039;-64
2023/05/20 08:02:56;;;;;;;13.80;9.82;;;;;;;13.25;100.00;93743.41;5111788;28;20040;-61
2023/05/20 08:05:23;;;;;;;15.93;10.30;;;;;;;12.78;100.00;93748.19;5105034;28;20040;-60
2023/05/20 08:07:50;;;;;;;14.52;9.38;;;;;;;13.37;100.00;93739.94;5111734;28;20058;-60
2023/05/20 08:10:16;;;;;;;13.60;9.45;;;;;;;12.91;100.00;93748.25;5111456;28;20039;-60
2023/05/20 08:12:45;;;;;;;14.63;9.70;;;;;;;12.87;100.00;93757.81;5093802;28;20042;-60
2023/05/20 08:15:12;;;;;;;13.90;9.57;;;;;;;12.69;100.00;93763.78;5107485;28;20038;-60
2023/05/20 08:17:38;;;;;;;13.50;9.30;;;;;;;13.24;100.00;93747.34;5091464;28;20112;-61
2023/05/20 08:20:07;;;;;;;14.55;9.45;;;;;;;12.82;100.00;93761.88;5090883;28;20370;-61
2023/05/20 08:22:34;;;;;;;16.02;9.82;;;;;;;12.72;100.00;93760.94;5091231;28;20418;-63
2023/05/20 08:25:01;;;;;;;14.50;9.15;;;;;;;13.26;100.00;93747.69;5090787;28;20050;-60
2023/05/20 08:27:28;;;;;;;14.18;9.55;;;;;;;13.44;100.00;93752.72;5110662;28;20044;-60
2023/05/20 08:29:55;;;;;;;13.60;9.03;;;;;;;13.65;100.00;93752.09;5080335;28;20038;-60
2023/05/20 08:32:23;;;;;;;13.23;8.30;;;;;;;13.82;100.00;93743.75;5090130;28;20673;-60
2023/05/20 08:34:50;;;;;;;14.32;9.55;;;;;;;13.99;100.00;93751.47;5102697;28;20074;-59
2023/05/20 08:37:17;;;;;;;14.23;9.93;;;;;;;13.17;100.00;93753.84;5096280;28;20040;-58
2023/05/20 08:39:45;;;;;;;15.55;10.60;;;;;;;12.67;100.00;93758.72;5090907;28;20040;-60
2023/05/20 08:42:12;;;;;;;14.03;9.57;;;;;;;13.37;100.00;93756.47;5090192;28;20396;-59
2023/05/20 08:44:40;;;;;;;12.80;9.13;;;;;;;13.48;100.00;93756.94;5090920;28;20040;-58
2023/05/20 08:47:08;;;;;;;13.85;9.32;;;;;;;13.37;100.00;93759.22;5099201;28;20044;-59
2023/05/20 08:49:35;;;;;;;14.70;10.07;;;;;;;12.85;100.00;93768.50;5090781;28;20050;-58
2023/05/20 08:52:02;;;;;;;14.48;10.45;;;;;;;13.27;100.00;93758.28;5102779;28;20047;-58
2023/05/20 08:54:42;;;;;;;14.60;9.47;;;;;;;14.33;100.00;93747.25;5090713;28;20100;-59
2023/05/20 08:57:12;;;;;;;13.07;9.30;;;;;;;14.72;100.00;93756.25;5090424;28;20043;-58
2023/05/20 08:59:44;;;;;;;12.85;9.30;;;;;;;14.30;100.00;93756.41;5092222;28;20047;-59
2023/05/20 09:02:11;;;;;;;12.63;8.82;;;;;;;14.85;100.00;93749.91;5109728;28;20043;-59
2023/05/20 09:04:38;;;;;;;12.82;9.07;;;;;;;15.57;100.00;93745.38;5099636;28;20479;-61
2023/05/20 09:07:05;;;;;;;14.70;10.97;;;;;;;15.06;100.00;93749.16;5089940;28;20047;-59
2023/05/20 09:09:34;;;;;;;13.90;9.50;;;;;;;15.32;100.00;93747.06;5102778;28;20051;-60
2023/05/20 09:12:02;;;;;;;13.82;10.25;;;;;;;14.93;100.00;93745.69;5109791;28;20391;-58
2023/05/20 09:14:29;;;;;;;13.13;10.18;;;;;;;14.68;100.00;93749.31;5110746;28;20476;-61
2023/05/20 09:16:56;;;;;;;12.93;9.75;;;;;;;15.38;100.00;93744.50;5109316;28;20506;-60
2023/05/20 09:19:23;;;;;;;13.30;10.40;;;;;;;14.56;100.00;93748.88;5102635;28;20043;-59
2023/05/20 09:21:53;;;;;;;13.95;10.00;;;;;;;14.55;100.00;93754.84;5089998;28;20048;-59
2023/05/20 09:24:23;;;;;;;13.82;9.73;;;;;;;14.27;100.00;93756.53;5089296;28;20062;-62
2023/05/20 09:26:50;;;;;;;13.13;10.10;;;;;;;14.48;100.00;93749.53;5103638;28;20040;-59
2023/05/20 09:29:20;;;;;;;12.15;9.55;;;;;;;15.55;100.00;93742.28;5096982;28;20082;-59
2023/05/20 09:31:48;;;;;;;11.77;8.73;;;;;;;15.67;100.00;93743.44;5110515;28;20103;-61
2023/05/20 09:34:16;;;;;;;12.40;9.73;;;;;;;15.83;100.00;93748.00;5094349;28;20043;-58
2023/05/20 09:36:44;;;;;;;12.52;9.60;;;;;;;15.80;100.00;93744.16;5100887;28;20494;-59
2023/05/20 09:39:15;;;;;;;14.88;9.55;;;;;;;15.26;100.00;93746.09;5089071;28;20146;-60
2023/05/20 09:41:50;;;;;;;15.40;9.68;;;;;;;15.34;100.00;93744.63;5089365;28;20052;-59
2023/05/20 09:44:19;;;;;;;13.13;10.00;;;;;;;14.28;100.00;93744.28;5086909;28;20042;-59
2023/05/20 09:46:48;;;;;;;12.82;10.15;;;;;;;14.55;100.00;93739.03;5089601;28;20044;-59
2023/05/20 09:49:16;;;;;;;13.50;10.02;;;;;;;15.17;100.00;93741.28;5107367;28;20040;-59
2023/05/20 09:51:44;;;;;;;12.48;10.57;;;;;;;15.16;100.00;93745.25;5099819;28;20048;-59
2023/05/20 09:54:12;;;;;;;13.50;9.70;;;;;;;15.22;100.00;93744.69;5088901;28;20066;-59
2023/05/20 09:56:40;;;;;;;13.47;9.90;;;;;;;16.42;100.00;93737.78;5100249;28;20043;-61
2023/05/20 09:59:09;;;;;;;11.90;9.00;;;;;;;17.85;92.83;93732.84;5108660;28;20058;-62
2023/05/20 10:01:36;;;;;;;11.63;9.63;;;;;;;16.71;98.41;93739.38;5105217;28;20043;-62
2023/05/20 10:04:06;;;;;;;12.35;9.20;;;;;;;15.40;100.00;93741.28;5086671;28;20044;-60
2023/05/20 10:07:08;;;;;;;12.05;10.02;;;;;;;14.97;100.00;93738.06;5109468;28;20035;-60
2023/05/20 10:10:02;;;;;;;11.83;9.80;;;;;;;15.07;100.00;93736.91;5069565;28;21573;-60
2023/05/20 10:12:55;;;;;;;13.68;10.02;;;;;;;15.02;100.00;93728.41;5042246;28;20705;-59
2023/05/20 10:15:50;;;;;;;10.43;8.63;;;;;;;15.64;100.00;93727.75;5052901;28;21787;-59
2023/05/20 10:18:24;;;;;;;11.52;9.52;;;;;;;16.18;100.00;93727.25;5088420;28;20044;-59
2023/05/20 10:20:51;;;;;;;10.73;8.43;;;;;;;16.53;100.00;93718.69;5078903;28;20040;-60
2023/05/20 10:23:28;;;;;;;9.87;8.00;;;;;;;17.26;100.00;93724.75;5099870;28;20036;-59
2023/05/20 10:25:56;;;;;;;10.02;8.25;;;;;;;17.55;94.58;93716.72;5109572;28;20053;-60
2023/05/20 10:28:31;;;;;;;10.35;7.93;;;;;;;18.90;87.38;93707.94;5107674;28;20705;-60
2023/05/20 10:30:58;;;;;;;8.82;7.50;;;;;;;19.86;79.08;93704.16;5090070;28;20050;-60
2023/05/20 10:33:29;;;;;;;9.38;8.10;;;;;;;20.57;72.33;93700.66;5108656;28;20046;-61
2023/05/20 10:36:00;;;;;;;9.10;7.90;;;;;;;20.37;71.43;93701.38;5088056;28;20070;-61
2023/05/20 10:38:26;;;;;;;9.48;8.13;;;;;;;19.27;74.93;93701.31;5103423;28;20947;-60
2023/05/20 10:40:56;;;;;;;8.38;7.47;;;;;;;19.63;74.26;93696.66;5109429;28;20039;-61
2023/05/20 10:43:27;;;;;;;8.77;7.88;;;;;;;19.09;76.81;93691.13;5107756;28;20838;-60
2023/05/20 10:45:56;;;;;;;9.52;7.85;;;;;;;20.30;74.73;93683.03;5109535;28;20385;-61
2023/05/20 10:48:30;;;;;;;8.03;7.03;;;;;;;20.64;72.81;93684.28;5101854;28;21433;-61
2023/05/20 10:51:03;;;;;;;9.85;8.85;;;;;;;19.79;71.91;93673.16;5108826;28;20044;-60
2023/05/20 10:53:41;;;;;;;9.27;7.53;;;;;;;21.55;67.71;93674.97;5109000;28;20039;-61
2023/05/20 10:56:18;;;;;;;9.20;8.15;;;;;;;21.04;69.92;93673.63;5108594;28;20047;-62
2023/05/20 10:58:45;;;;;;;8.85;7.95;;;;;;;20.85;66.82;93684.31;5109021;28;20119;-61
2023/05/20 11:01:12;;;;;;;9.03;7.97;;;;;;;19.39;70.66;93691.94;5108662;28;20400;-60
2023/05/20 11:03:40;;;;;;;9.20;8.27;;;;;;;18.06;79.37;93689.44;5108680;28;20054;-60
2023/05/20 11:06:16;;;;;;;10.60;9.20;;;;;;;17.51;87.80;93685.59;5108173;28;20046;-60
2023/05/20 11:08:45;;;;;;;10.30;9.02;;;;;;;17.34;87.54;93679.63;5097640;28;20047;-60
2023/05/20 11:11:13;;;;;;;10.82;8.80;;;;;;;17.81;87.47;93690.56;5108105;28;20044;-60
2023/05/20 11:13:40;;;;;;;11.30;8.90;;;;;;;17.39;88.79;93685.78;5100694;28;20051;-60
2023/05/20 11:16:06;;;;;;;10.32;8.95;;;;;;;17.94;83.02;93677.31;5106255;28;20441;-60
2023/05/20 11:18:33;;;;;;;9.80;8.80;;;;;;;18.91;79.20;93670.56;5097494;28;20043;-61
2023/05/20 11:21:01;;;;;;;9.65;8.40;;;;;;;19.72;74.04;93657.63;5087728;28;20047;-59